Huvudsida
METAR-TAF:

METAR-TAF

Flygplatser :

Stockholm-Västerås flygplats

Västerås, Sverige

latitud: 59-35N, longitud: 016-38E, höjd: 6 m

Aktuellt väderrapport

Denna rapport gjordes för 10 minuter sedan, klockan 06:20 UTC
Vind 4 kt från nord/nordost, varierande mellan nord/nordväst och nordost
Temperatur 11°C
Fuktighet 87%
Tryck 1002 hPa
Sikt 10 km eller mer
Spridda moln på en höjd av 800 ft
Brutna moln på en höjd av 3400 ft
lätt regn

METAR: ESOW 210620Z 02004KT 340V050 9999 -RA SCT008 BKN034 11/09 Q1002

Tid: 08:30 (06:30 UTC)

Väderprognos

Denna rapport gjordes för 1 timme och 0 minuter sedan, klockan 05:30 UTC
Prognos gäller från 21 kl. 06 UTC till 21 kl. 15 UTC
Vind 4 kt från nord/nordost
Sikt 10 km eller mer
Brutna moln på en höjd av 4000 ft
Temporärt
från 21 kl. 06 UTC till 21 kl. 15 UTC
Sikt: 4000 m
Brutna moln på en höjd av 500 ft
regn

TAF: ESOW 210530Z 2106/2115 03004KT 9999 BKN040 TEMPO 2106/2115 4000 RA BKN005

Aktuella väderrapporter och prognoser från 4000 flygplatser (METAR- och TAF-rapporter).

De tillgängliga stationerna syns som gula och röda prickar på kartan.

För musen över prickarna för att se namnen på stationerna.

Klicka sedan för att få väderrapporter och prognoser.

För att ändra kartan: Klicka på de gröna knapparna med ett svart kors på för att zooma in; den gröna knappen med ett streck på för att zooma ut; eller på de gröna pilarna för angränsande kartor.


METAR-TAF: